sensor_id;sensor_type;location;lat;lon;timestamp;temperature;humidity
75275;HTU21D;63871;47.216;39.684;2023-07-02T00:01:48;20.09;85.20
75275;HTU21D;63871;47.216;39.684;2023-07-02T00:04:15;20.05;85.26
75275;HTU21D;63871;47.216;39.684;2023-07-02T00:06:44;20.01;85.05
75275;HTU21D;63871;47.216;39.684;2023-07-02T00:09:10;20.06;85.32
75275;HTU21D;63871;47.216;39.684;2023-07-02T00:11:38;20.05;85.27
75275;HTU21D;63871;47.216;39.684;2023-07-02T00:14:22;20.05;85.36
75275;HTU21D;63871;47.216;39.684;2023-07-02T00:16:47;20.07;85.33
75275;HTU21D;63871;47.216;39.684;2023-07-02T00:19:14;20.10;85.15
75275;HTU21D;63871;47.216;39.684;2023-07-02T00:21:40;20.13;85.16
75275;HTU21D;63871;47.216;39.684;2023-07-02T00:24:07;20.15;84.97
75275;HTU21D;63871;47.216;39.684;2023-07-02T00:26:35;20.16;85.08
75275;HTU21D;63871;47.216;39.684;2023-07-02T00:29:01;20.17;84.77
75275;HTU21D;63871;47.216;39.684;2023-07-02T00:32:04;20.18;84.99
75275;HTU21D;63871;47.216;39.684;2023-07-02T00:34:48;20.19;84.88
75275;HTU21D;63871;47.216;39.684;2023-07-02T00:37:14;20.17;84.58
75275;HTU21D;63871;47.216;39.684;2023-07-02T00:39:41;20.17;84.71
75275;HTU21D;63871;47.216;39.684;2023-07-02T00:42:06;20.16;84.88
75275;HTU21D;63871;47.216;39.684;2023-07-02T00:44:33;20.16;84.55
75275;HTU21D;63871;47.216;39.684;2023-07-02T00:47:24;20.19;84.48
75275;HTU21D;63871;47.216;39.684;2023-07-02T00:49:50;20.17;84.13
75275;HTU21D;63871;47.216;39.684;2023-07-02T00:52:16;20.15;84.13
75275;HTU21D;63871;47.216;39.684;2023-07-02T00:54:44;20.11;84.32
75275;HTU21D;63871;47.216;39.684;2023-07-02T00:57:09;20.06;84.15
75275;HTU21D;63871;47.216;39.684;2023-07-02T00:59:35;20.04;84.29
75275;HTU21D;63871;47.216;39.684;2023-07-02T01:02:02;20.01;84.08
75275;HTU21D;63871;47.216;39.684;2023-07-02T01:04:27;20.03;84.08
75275;HTU21D;63871;47.216;39.684;2023-07-02T01:06:53;20.11;84.16
75275;HTU21D;63871;47.216;39.684;2023-07-02T01:09:44;20.09;84.41
75275;HTU21D;63871;47.216;39.684;2023-07-02T01:12:10;19.98;84.45
75275;HTU21D;63871;47.216;39.684;2023-07-02T01:14:39;19.88;84.80
75275;HTU21D;63871;47.216;39.684;2023-07-02T01:17:06;19.79;85.21
75275;HTU21D;63871;47.216;39.684;2023-07-02T01:19:49;19.68;85.35
75275;HTU21D;63871;47.216;39.684;2023-07-02T01:22:20;19.68;85.68
75275;HTU21D;63871;47.216;39.684;2023-07-02T01:24:47;19.69;85.42
75275;HTU21D;63871;47.216;39.684;2023-07-02T01:27:14;19.71;85.15
75275;HTU21D;63871;47.216;39.684;2023-07-02T01:29:41;19.72;85.12
75275;HTU21D;63871;47.216;39.684;2023-07-02T01:32:07;19.76;85.01
75275;HTU21D;63871;47.216;39.684;2023-07-02T01:34:34;19.75;85.06
75275;HTU21D;63871;47.216;39.684;2023-07-02T01:37:01;19.76;84.90
75275;HTU21D;63871;47.216;39.684;2023-07-02T01:39:27;19.79;84.82
75275;HTU21D;63871;47.216;39.684;2023-07-02T01:41:55;19.81;85.17
75275;HTU21D;63871;47.216;39.684;2023-07-02T01:44:22;19.77;85.21
75275;HTU21D;63871;47.216;39.684;2023-07-02T01:46:48;19.79;85.38
75275;HTU21D;63871;47.216;39.684;2023-07-02T01:49:15;19.75;86.09
75275;HTU21D;63871;47.216;39.684;2023-07-02T01:51:54;19.72;86.17
75275;HTU21D;63871;47.216;39.684;2023-07-02T01:54:22;19.70;86.39
75275;HTU21D;63871;47.216;39.684;2023-07-02T01:57:08;19.70;86.77
75275;HTU21D;63871;47.216;39.684;2023-07-02T01:59:34;19.70;86.83
75275;HTU21D;63871;47.216;39.684;2023-07-02T02:02:00;19.72;86.81
75275;HTU21D;63871;47.216;39.684;2023-07-02T02:04:26;19.79;86.64
75275;HTU21D;63871;47.216;39.684;2023-07-02T02:06:52;19.87;86.51
75275;HTU21D;63871;47.216;39.684;2023-07-02T02:09:18;19.97;86.65
75275;HTU21D;63871;47.216;39.684;2023-07-02T02:14:30;20.05;86.44
75275;HTU21D;63871;47.216;39.684;2023-07-02T02:16:56;20.06;86.25
75275;HTU21D;63871;47.216;39.684;2023-07-02T02:19:22;20.11;86.24
75275;HTU21D;63871;47.216;39.684;2023-07-02T02:21:48;20.15;86.25
75275;HTU21D;63871;47.216;39.684;2023-07-02T02:24:14;20.19;86.22
75275;HTU21D;63871;47.216;39.684;2023-07-02T02:26:40;20.25;86.13
75275;HTU21D;63871;47.216;39.684;2023-07-02T02:29:06;20.29;86.31
75275;HTU21D;63871;47.216;39.684;2023-07-02T02:31:31;20.32;86.19
75275;HTU21D;63871;47.216;39.684;2023-07-02T02:34:16;20.34;86.22
75275;HTU21D;63871;47.216;39.684;2023-07-02T02:36:41;20.36;86.12
75275;HTU21D;63871;47.216;39.684;2023-07-02T02:39:07;20.42;86.08
75275;HTU21D;63871;47.216;39.684;2023-07-02T02:41:52;20.44;86.10
75275;HTU21D;63871;47.216;39.684;2023-07-02T02:44:20;20.47;86.15
75275;HTU21D;63871;47.216;39.684;2023-07-02T02:46:46;20.50;86.25
75275;HTU21D;63871;47.216;39.684;2023-07-02T02:49:12;20.54;86.24
75275;HTU21D;63871;47.216;39.684;2023-07-02T02:51:38;20.61;86.05
75275;HTU21D;63871;47.216;39.684;2023-07-02T02:54:03;20.69;85.94
75275;HTU21D;63871;47.216;39.684;2023-07-02T02:56:29;20.76;85.70
75275;HTU21D;63871;47.216;39.684;2023-07-02T02:58:55;20.87;85.53
75275;HTU21D;63871;47.216;39.684;2023-07-02T03:01:20;20.94;85.35
75275;HTU21D;63871;47.216;39.684;2023-07-02T03:03:46;21.01;85.15
75275;HTU21D;63871;47.216;39.684;2023-07-02T03:06:13;21.03;84.99
75275;HTU21D;63871;47.216;39.684;2023-07-02T03:08:57;21.07;84.78
75275;HTU21D;63871;47.216;39.684;2023-07-02T03:11:23;21.15;84.63
75275;HTU21D;63871;47.216;39.684;2023-07-02T03:13:49;21.19;84.47
75275;HTU21D;63871;47.216;39.684;2023-07-02T03:16:33;21.24;84.39
75275;HTU21D;63871;47.216;39.684;2023-07-02T03:19:18;21.33;84.39
75275;HTU21D;63871;47.216;39.684;2023-07-02T03:24:28;21.38;84.16
75275;HTU21D;63871;47.216;39.684;2023-07-02T03:26:54;21.42;84.17
75275;HTU21D;63871;47.216;39.684;2023-07-02T03:29:19;21.49;84.17
75275;HTU21D;63871;47.216;39.684;2023-07-02T03:31:46;21.55;84.08
75275;HTU21D;63871;47.216;39.684;2023-07-02T03:34:12;21.63;83.85
75275;HTU21D;63871;47.216;39.684;2023-07-02T03:36:38;21.68;83.72
75275;HTU21D;63871;47.216;39.684;2023-07-02T03:39:42;21.76;83.52
75275;HTU21D;63871;47.216;39.684;2023-07-02T03:42:08;21.81;83.41
75275;HTU21D;63871;47.216;39.684;2023-07-02T03:47:17;22.04;83.03
75275;HTU21D;63871;47.216;39.684;2023-07-02T03:50:03;22.13;82.84
75275;HTU21D;63871;47.216;39.684;2023-07-02T03:52:29;22.26;82.72
75275;HTU21D;63871;47.216;39.684;2023-07-02T03:54:55;22.44;82.50
75275;HTU21D;63871;47.216;39.684;2023-07-02T03:57:20;22.60;82.03
75275;HTU21D;63871;47.216;39.684;2023-07-02T03:59:46;22.71;81.71
75275;HTU21D;63871;47.216;39.684;2023-07-02T04:02:12;22.86;81.34
75275;HTU21D;63871;47.216;39.684;2023-07-02T04:04:38;22.98;81.08
75275;HTU21D;63871;47.216;39.684;2023-07-02T04:07:03;23.09;80.66
75275;HTU21D;63871;47.216;39.684;2023-07-02T04:09:29;23.17;80.31
75275;HTU21D;63871;47.216;39.684;2023-07-02T04:11:57;23.22;79.83
75275;HTU21D;63871;47.216;39.684;2023-07-02T04:14:23;23.24;79.88
75275;HTU21D;63871;47.216;39.684;2023-07-02T04:16:48;23.30;79.73
75275;HTU21D;63871;47.216;39.684;2023-07-02T04:19:14;23.35;79.73
75275;HTU21D;63871;47.216;39.684;2023-07-02T04:21:40;23.38;79.53
75275;HTU21D;63871;47.216;39.684;2023-07-02T04:24:06;23.42;79.45
75275;HTU21D;63871;47.216;39.684;2023-07-02T04:26:31;23.51;79.40
75275;HTU21D;63871;47.216;39.684;2023-07-02T04:28:57;23.64;79.24
75275;HTU21D;63871;47.216;39.684;2023-07-02T04:31:24;23.73;79.04
75275;HTU21D;63871;47.216;39.684;2023-07-02T04:33:50;23.76;78.73
75275;HTU21D;63871;47.216;39.684;2023-07-02T04:36:16;23.80;78.80
75275;HTU21D;63871;47.216;39.684;2023-07-02T04:38:42;23.86;78.88
75275;HTU21D;63871;47.216;39.684;2023-07-02T04:41:08;23.94;78.76
75275;HTU21D;63871;47.216;39.684;2023-07-02T04:43:36;24.02;78.64
75275;HTU21D;63871;47.216;39.684;2023-07-02T04:46:02;24.13;78.64
75275;HTU21D;63871;47.216;39.684;2023-07-02T04:48:28;24.27;78.53
75275;HTU21D;63871;47.216;39.684;2023-07-02T04:51:12;24.35;78.01
75275;HTU21D;63871;47.216;39.684;2023-07-02T04:53:38;24.41;77.48
75275;HTU21D;63871;47.216;39.684;2023-07-02T04:56:04;24.36;77.50
75275;HTU21D;63871;47.216;39.684;2023-07-02T04:58:29;24.40;77.56
75275;HTU21D;63871;47.216;39.684;2023-07-02T05:00:55;24.44;77.66
75275;HTU21D;63871;47.216;39.684;2023-07-02T05:03:21;24.50;77.56
75275;HTU21D;63871;47.216;39.684;2023-07-02T05:05:47;24.56;77.56
75275;HTU21D;63871;47.216;39.684;2023-07-02T05:08:12;24.73;77.54
75275;HTU21D;63871;47.216;39.684;2023-07-02T05:10:38;24.88;77.31
75275;HTU21D;63871;47.216;39.684;2023-07-02T05:13:05;25.03;76.88
75275;HTU21D;63871;47.216;39.684;2023-07-02T05:15:30;25.10;76.41
75275;HTU21D;63871;47.216;39.684;2023-07-02T05:17:56;25.16;75.79
75275;HTU21D;63871;47.216;39.684;2023-07-02T05:20:22;25.19;75.80
75275;HTU21D;63871;47.216;39.684;2023-07-02T05:22:47;25.32;75.57
75275;HTU21D;63871;47.216;39.684;2023-07-02T05:25:13;25.40;75.07
75275;HTU21D;63871;47.216;39.684;2023-07-02T05:27:39;25.52;74.91
75275;HTU21D;63871;47.216;39.684;2023-07-02T05:30:05;25.56;74.48
75275;HTU21D;63871;47.216;39.684;2023-07-02T05:32:34;25.66;73.51
75275;HTU21D;63871;47.216;39.684;2023-07-02T05:35:00;25.82;73.58
75275;HTU21D;63871;47.216;39.684;2023-07-02T05:37:26;26.03;73.47
75275;HTU21D;63871;47.216;39.684;2023-07-02T05:42:55;26.28;71.82
75275;HTU21D;63871;47.216;39.684;2023-07-02T05:45:20;26.51;71.77
75275;HTU21D;63871;47.216;39.684;2023-07-02T05:47:46;26.66;70.92
75275;HTU21D;63871;47.216;39.684;2023-07-02T05:50:12;26.78;70.52
75275;HTU21D;63871;47.216;39.684;2023-07-02T05:52:38;26.90;69.64
75275;HTU21D;63871;47.216;39.684;2023-07-02T05:55:04;27.02;69.35
75275;HTU21D;63871;47.216;39.684;2023-07-02T05:57:30;27.17;68.58
75275;HTU21D;63871;47.216;39.684;2023-07-02T05:59:55;27.34;68.53
75275;HTU21D;63871;47.216;39.684;2023-07-02T06:02:21;27.65;67.95
75275;HTU21D;63871;47.216;39.684;2023-07-02T06:04:47;28.00;67.89
75275;HTU21D;63871;47.216;39.684;2023-07-02T06:07:13;28.46;67.66
75275;HTU21D;63871;47.216;39.684;2023-07-02T06:09:38;28.86;64.93
75275;HTU21D;63871;47.216;39.684;2023-07-02T06:12:04;29.16;64.50
75275;HTU21D;63871;47.216;39.684;2023-07-02T06:14:30;29.46;64.98
75275;HTU21D;63871;47.216;39.684;2023-07-02T06:16:56;29.94;63.96
75275;HTU21D;63871;47.216;39.684;2023-07-02T06:19:22;30.27;61.57
75275;HTU21D;63871;47.216;39.684;2023-07-02T06:21:48;30.62;59.67
75275;HTU21D;63871;47.216;39.684;2023-07-02T06:24:14;30.92;58.60
75275;HTU21D;63871;47.216;39.684;2023-07-02T06:26:40;31.08;58.18
75275;HTU21D;63871;47.216;39.684;2023-07-02T06:29:05;31.16;56.89
75275;HTU21D;63871;47.216;39.684;2023-07-02T06:31:31;31.31;53.95
75275;HTU21D;63871;47.216;39.684;2023-07-02T06:33:57;31.33;54.25
75275;HTU21D;63871;47.216;39.684;2023-07-02T06:36:22;31.29;53.86
75275;HTU21D;63871;47.216;39.684;2023-07-02T06:38:48;31.16;53.62
75275;HTU21D;63871;47.216;39.684;2023-07-02T06:41:15;31.14;54.30
75275;HTU21D;63871;47.216;39.684;2023-07-02T06:43:43;31.24;54.42
75275;HTU21D;63871;47.216;39.684;2023-07-02T06:46:10;31.34;54.23
75275;HTU21D;63871;47.216;39.684;2023-07-02T06:48:36;31.43;54.04
75275;HTU21D;63871;47.216;39.684;2023-07-02T06:51:02;31.56;53.56
75275;HTU21D;63871;47.216;39.684;2023-07-02T06:53:27;31.65;53.62
75275;HTU21D;63871;47.216;39.684;2023-07-02T06:55:53;31.83;52.82
75275;HTU21D;63871;47.216;39.684;2023-07-02T06:58:19;32.07;52.24
75275;HTU21D;63871;47.216;39.684;2023-07-02T07:00:45;32.22;52.04
75275;HTU21D;63871;47.216;39.684;2023-07-02T07:03:11;32.23;51.50
75275;HTU21D;63871;47.216;39.684;2023-07-02T07:05:36;32.18;50.41
75275;HTU21D;63871;47.216;39.684;2023-07-02T07:08:02;32.08;49.77
75275;HTU21D;63871;47.216;39.684;2023-07-02T07:10:28;31.99;50.56
75275;HTU21D;63871;47.216;39.684;2023-07-02T07:13:01;31.93;49.85
75275;HTU21D;63871;47.216;39.684;2023-07-02T07:15:31;31.88;49.16
75275;HTU21D;63871;47.216;39.684;2023-07-02T07:17:57;31.89;49.10
75275;HTU21D;63871;47.216;39.684;2023-07-02T07:20:23;31.88;49.34
75275;HTU21D;63871;47.216;39.684;2023-07-02T07:22:49;31.95;49.25
75275;HTU21D;63871;47.216;39.684;2023-07-02T07:25:15;32.05;47.50
75275;HTU21D;63871;47.216;39.684;2023-07-02T07:27:40;32.09;47.78
75275;HTU21D;63871;47.216;39.684;2023-07-02T07:30:06;32.32;48.26
75275;HTU21D;63871;47.216;39.684;2023-07-02T07:32:32;32.60;46.15
75275;HTU21D;63871;47.216;39.684;2023-07-02T07:34:58;32.79;45.38
75275;HTU21D;63871;47.216;39.684;2023-07-02T07:37:24;32.85;45.26
75275;HTU21D;63871;47.216;39.684;2023-07-02T07:39:53;32.81;45.39
75275;HTU21D;63871;47.216;39.684;2023-07-02T07:42:19;32.84;45.34
75275;HTU21D;63871;47.216;39.684;2023-07-02T07:44:46;32.92;44.19
75275;HTU21D;63871;47.216;39.684;2023-07-02T07:47:12;33.03;43.44
75275;HTU21D;63871;47.216;39.684;2023-07-02T07:49:37;33.05;43.55
75275;HTU21D;63871;47.216;39.684;2023-07-02T07:52:04;33.22;44.98
75275;HTU21D;63871;47.216;39.684;2023-07-02T07:54:32;33.42;44.51
75275;HTU21D;63871;47.216;39.684;2023-07-02T07:57:00;33.48;43.46
75275;HTU21D;63871;47.216;39.684;2023-07-02T07:59:25;33.44;43.19
75275;HTU21D;63871;47.216;39.684;2023-07-02T08:01:51;33.46;43.03
75275;HTU21D;63871;47.216;39.684;2023-07-02T08:04:17;33.46;42.26
75275;HTU21D;63871;47.216;39.684;2023-07-02T08:06:42;33.56;42.24
75275;HTU21D;63871;47.216;39.684;2023-07-02T08:09:08;33.59;41.67
75275;HTU21D;63871;47.216;39.684;2023-07-02T08:11:35;33.52;42.03
75275;HTU21D;63871;47.216;39.684;2023-07-02T08:14:00;33.47;41.62
75275;HTU21D;63871;47.216;39.684;2023-07-02T08:16:26;33.37;43.32
75275;HTU21D;63871;47.216;39.684;2023-07-02T08:18:52;33.37;44.06
75275;HTU21D;63871;47.216;39.684;2023-07-02T08:21:18;33.02;44.64
75275;HTU21D;63871;47.216;39.684;2023-07-02T08:23:43;32.97;45.19
75275;HTU21D;63871;47.216;39.684;2023-07-02T08:26:09;33.04;45.04
75275;HTU21D;63871;47.216;39.684;2023-07-02T08:28:36;33.21;44.72
75275;HTU21D;63871;47.216;39.684;2023-07-02T08:31:04;33.44;43.23
75275;HTU21D;63871;47.216;39.684;2023-07-02T08:33:30;33.66;43.63
75275;HTU21D;63871;47.216;39.684;2023-07-02T08:35:56;33.78;43.13
75275;HTU21D;63871;47.216;39.684;2023-07-02T08:38:23;33.87;41.96
75275;HTU21D;63871;47.216;39.684;2023-07-02T08:40:49;33.85;41.42
75275;HTU21D;63871;47.216;39.684;2023-07-02T08:43:15;33.86;40.95
75275;HTU21D;63871;47.216;39.684;2023-07-02T08:45:41;34.03;39.54
75275;HTU21D;63871;47.216;39.684;2023-07-02T08:48:08;34.18;40.03
75275;HTU21D;63871;47.216;39.684;2023-07-02T08:50:33;34.22;40.18
75275;HTU21D;63871;47.216;39.684;2023-07-02T08:52:59;34.45;39.95
75275;HTU21D;63871;47.216;39.684;2023-07-02T08:55:25;34.51;38.78
75275;HTU21D;63871;47.216;39.684;2023-07-02T08:57:54;34.56;39.19
75275;HTU21D;63871;47.216;39.684;2023-07-02T09:00:20;34.74;37.43
75275;HTU21D;63871;47.216;39.684;2023-07-02T09:02:46;34.92;37.01
75275;HTU21D;63871;47.216;39.684;2023-07-02T09:05:12;34.96;36.66
75275;HTU21D;63871;47.216;39.684;2023-07-02T09:07:49;34.90;37.20
75275;HTU21D;63871;47.216;39.684;2023-07-02T09:10:31;34.97;35.52
75275;HTU21D;63871;47.216;39.684;2023-07-02T09:13:06;34.94;34.02
75275;HTU21D;63871;47.216;39.684;2023-07-02T09:15:37;34.93;34.05
75275;HTU21D;63871;47.216;39.684;2023-07-02T09:18:13;34.98;34.45
75275;HTU21D;63871;47.216;39.684;2023-07-02T09:20:39;35.10;33.42
75275;HTU21D;63871;47.216;39.684;2023-07-02T09:23:05;35.24;34.36
75275;HTU21D;63871;47.216;39.684;2023-07-02T09:25:38;35.41;33.15
75275;HTU21D;63871;47.216;39.684;2023-07-02T09:28:24;35.47;32.77
75275;HTU21D;63871;47.216;39.684;2023-07-02T09:30:54;35.47;31.63
75275;HTU21D;63871;47.216;39.684;2023-07-02T09:33:22;35.29;32.84
75275;HTU21D;63871;47.216;39.684;2023-07-02T09:35:48;35.26;32.99
75275;HTU21D;63871;47.216;39.684;2023-07-02T09:38:15;35.30;33.86
75275;HTU21D;63871;47.216;39.684;2023-07-02T09:41:00;35.27;32.74
75275;HTU21D;63871;47.216;39.684;2023-07-02T09:43:26;35.26;32.73
75275;HTU21D;63871;47.216;39.684;2023-07-02T09:45:54;35.21;33.34
75275;HTU21D;63871;47.216;39.684;2023-07-02T09:48:24;35.22;32.93
75275;HTU21D;63871;47.216;39.684;2023-07-02T09:50:51;35.12;33.47
75275;HTU21D;63871;47.216;39.684;2023-07-02T09:53:17;35.23;33.96
75275;HTU21D;63871;47.216;39.684;2023-07-02T09:55:43;35.41;33.14
75275;HTU21D;63871;47.216;39.684;2023-07-02T09:58:09;35.40;32.86
75275;HTU21D;63871;47.216;39.684;2023-07-02T10:00:36;35.24;33.70
75275;HTU21D;63871;47.216;39.684;2023-07-02T10:03:01;35.08;33.20
75275;HTU21D;63871;47.216;39.684;2023-07-02T10:05:32;34.88;33.97
75275;HTU21D;63871;47.216;39.684;2023-07-02T10:08:10;34.80;33.92
75275;HTU21D;63871;47.216;39.684;2023-07-02T10:10:37;34.68;34.06
75275;HTU21D;63871;47.216;39.684;2023-07-02T10:13:03;34.73;34.46
75275;HTU21D;63871;47.216;39.684;2023-07-02T10:15:30;34.76;34.34
75275;HTU21D;63871;47.216;39.684;2023-07-02T10:18:03;34.86;34.38
75275;HTU21D;63871;47.216;39.684;2023-07-02T10:20:39;35.01;34.31
75275;HTU21D;63871;47.216;39.684;2023-07-02T10:23:06;35.03;34.01
75275;HTU21D;63871;47.216;39.684;2023-07-02T10:25:36;34.94;33.12
75275;HTU21D;63871;47.216;39.684;2023-07-02T10:28:17;34.96;33.78
75275;HTU21D;63871;47.216;39.684;2023-07-02T10:30:43;34.95;33.43
75275;HTU21D;63871;47.216;39.684;2023-07-02T10:33:18;35.07;32.08
75275;HTU21D;63871;47.216;39.684;2023-07-02T10:35:48;35.12;31.64
75275;HTU21D;63871;47.216;39.684;2023-07-02T10:38:15;35.16;32.31
75275;HTU21D;63871;47.216;39.684;2023-07-02T10:40:42;34.97;31.29
75275;HTU21D;63871;47.216;39.684;2023-07-02T10:43:08;34.92;32.48
75275;HTU21D;63871;47.216;39.684;2023-07-02T10:45:35;34.91;32.15
75275;HTU21D;63871;47.216;39.684;2023-07-02T10:48:08;34.85;31.77
75275;HTU21D;63871;47.216;39.684;2023-07-02T10:50:34;34.91;30.93
75275;HTU21D;63871;47.216;39.684;2023-07-02T10:53:00;35.11;32.21
75275;HTU21D;63871;47.216;39.684;2023-07-02T10:55:27;35.38;32.31
75275;HTU21D;63871;47.216;39.684;2023-07-02T10:58:07;35.62;30.61
75275;HTU21D;63871;47.216;39.684;2023-07-02T11:00:45;35.67;30.20
75275;HTU21D;63871;47.216;39.684;2023-07-02T11:03:22;35.64;30.61
75275;HTU21D;63871;47.216;39.684;2023-07-02T11:05:49;35.45;30.70
75275;HTU21D;63871;47.216;39.684;2023-07-02T11:08:15;35.40;31.09
75275;HTU21D;63871;47.216;39.684;2023-07-02T11:10:42;35.44;30.93
75275;HTU21D;63871;47.216;39.684;2023-07-02T11:13:14;35.37;29.80
75275;HTU21D;63871;47.216;39.684;2023-07-02T11:15:41;35.14;30.06
75275;HTU21D;63871;47.216;39.684;2023-07-02T11:18:17;35.13;30.71
75275;HTU21D;63871;47.216;39.684;2023-07-02T11:20:44;35.25;29.25
75275;HTU21D;63871;47.216;39.684;2023-07-02T11:23:21;35.49;30.55
75275;HTU21D;63871;47.216;39.684;2023-07-02T11:25:57;35.70;29.61
75275;HTU21D;63871;47.216;39.684;2023-07-02T11:28:23;35.74;29.70
75275;HTU21D;63871;47.216;39.684;2023-07-02T11:30:49;35.80;29.89
75275;HTU21D;63871;47.216;39.684;2023-07-02T11:33:15;35.78;28.90
75275;HTU21D;63871;47.216;39.684;2023-07-02T11:35:41;35.60;28.74
75275;HTU21D;63871;47.216;39.684;2023-07-02T11:38:09;35.50;28.87
75275;HTU21D;63871;47.216;39.684;2023-07-02T11:40:38;35.45;28.89
75275;HTU21D;63871;47.216;39.684;2023-07-02T11:43:05;35.33;29.61
75275;HTU21D;63871;47.216;39.684;2023-07-02T11:45:31;35.29;30.13
75275;HTU21D;63871;47.216;39.684;2023-07-02T11:47:57;35.39;29.10
75275;HTU21D;63871;47.216;39.684;2023-07-02T11:50:23;35.15;29.00
75275;HTU21D;63871;47.216;39.684;2023-07-02T11:52:49;35.06;30.16
75275;HTU21D;63871;47.216;39.684;2023-07-02T11:55:14;35.00;30.36
75275;HTU21D;63871;47.216;39.684;2023-07-02T11:57:40;34.82;31.08
75275;HTU21D;63871;47.216;39.684;2023-07-02T12:00:06;34.81;31.60
75275;HTU21D;63871;47.216;39.684;2023-07-02T12:02:33;34.96;31.00
75275;HTU21D;63871;47.216;39.684;2023-07-02T12:04:59;35.22;29.97
75275;HTU21D;63871;47.216;39.684;2023-07-02T12:07:25;35.37;29.63
75275;HTU21D;63871;47.216;39.684;2023-07-02T12:09:50;35.41;29.48
75275;HTU21D;63871;47.216;39.684;2023-07-02T12:12:16;35.25;30.09
75275;HTU21D;63871;47.216;39.684;2023-07-02T12:14:42;35.00;31.21
75275;HTU21D;63871;47.216;39.684;2023-07-02T12:17:09;34.81;31.75
75275;HTU21D;63871;47.216;39.684;2023-07-02T12:19:38;34.80;32.24
75275;HTU21D;63871;47.216;39.684;2023-07-02T12:22:05;35.01;32.45
75275;HTU21D;63871;47.216;39.684;2023-07-02T12:24:31;35.19;31.29
75275;HTU21D;63871;47.216;39.684;2023-07-02T12:26:56;35.35;31.94
75275;HTU21D;63871;47.216;39.684;2023-07-02T12:29:22;35.47;31.12
75275;HTU21D;63871;47.216;39.684;2023-07-02T12:31:48;35.48;31.20
75275;HTU21D;63871;47.216;39.684;2023-07-02T12:34:13;35.57;31.16
75275;HTU21D;63871;47.216;39.684;2023-07-02T12:36:40;35.59;31.12
75275;HTU21D;63871;47.216;39.684;2023-07-02T12:39:06;35.38;30.75
75275;HTU21D;63871;47.216;39.684;2023-07-02T12:41:33;35.26;31.74
75275;HTU21D;63871;47.216;39.684;2023-07-02T12:43:59;35.44;31.70
75275;HTU21D;63871;47.216;39.684;2023-07-02T12:46:25;35.44;30.93
75275;HTU21D;63871;47.216;39.684;2023-07-02T12:48:50;35.23;31.33
75275;HTU21D;63871;47.216;39.684;2023-07-02T12:51:16;35.09;31.35
75275;HTU21D;63871;47.216;39.684;2023-07-02T12:53:42;34.92;31.70
75275;HTU21D;63871;47.216;39.684;2023-07-02T12:56:08;35.00;31.32
75275;HTU21D;63871;47.216;39.684;2023-07-02T12:58:33;34.95;31.58
75275;HTU21D;63871;47.216;39.684;2023-07-02T13:00:59;34.69;32.16
75275;HTU21D;63871;47.216;39.684;2023-07-02T13:03:25;34.54;32.69
75275;HTU21D;63871;47.216;39.684;2023-07-02T13:05:51;34.44;33.15
75275;HTU21D;63871;47.216;39.684;2023-07-02T13:08:16;34.38;33.21
75275;HTU21D;63871;47.216;39.684;2023-07-02T13:10:43;34.40;33.17
75275;HTU21D;63871;47.216;39.684;2023-07-02T13:13:09;34.29;33.04
75275;HTU21D;63871;47.216;39.684;2023-07-02T13:15:35;34.24;33.02
75275;HTU21D;63871;47.216;39.684;2023-07-02T13:18:01;34.46;33.09
75275;HTU21D;63871;47.216;39.684;2023-07-02T13:20:27;34.57;32.30
75275;HTU21D;63871;47.216;39.684;2023-07-02T13:22:52;34.57;32.35
75275;HTU21D;63871;47.216;39.684;2023-07-02T13:25:18;34.57;32.54
75275;HTU21D;63871;47.216;39.684;2023-07-02T13:27:44;34.55;32.71
75275;HTU21D;63871;47.216;39.684;2023-07-02T13:30:10;34.59;33.31
75275;HTU21D;63871;47.216;39.684;2023-07-02T13:32:36;34.71;33.80
75275;HTU21D;63871;47.216;39.684;2023-07-02T13:35:01;34.94;33.44
75275;HTU21D;63871;47.216;39.684;2023-07-02T13:37:28;35.14;33.01
75275;HTU21D;63871;47.216;39.684;2023-07-02T13:39:54;35.14;32.83
75275;HTU21D;63871;47.216;39.684;2023-07-02T13:42:19;35.09;31.18
75275;HTU21D;63871;47.216;39.684;2023-07-02T13:44:45;34.77;32.01
75275;HTU21D;63871;47.216;39.684;2023-07-02T13:47:11;34.34;31.78
75275;HTU21D;63871;47.216;39.684;2023-07-02T13:49:37;34.01;32.43
75275;HTU21D;63871;47.216;39.684;2023-07-02T13:52:03;33.92;33.07
75275;HTU21D;63871;47.216;39.684;2023-07-02T13:54:28;33.79;33.12
75275;HTU21D;63871;47.216;39.684;2023-07-02T13:56:55;33.75;34.14
75275;HTU21D;63871;47.216;39.684;2023-07-02T13:59:21;33.81;34.21
75275;HTU21D;63871;47.216;39.684;2023-07-02T14:01:47;33.80;33.88
75275;HTU21D;63871;47.216;39.684;2023-07-02T14:04:15;33.77;33.87
75275;HTU21D;63871;47.216;39.684;2023-07-02T14:06:41;33.73;33.22
75275;HTU21D;63871;47.216;39.684;2023-07-02T14:09:06;33.64;31.80
75275;HTU21D;63871;47.216;39.684;2023-07-02T14:11:35;33.44;31.54
75275;HTU21D;63871;47.216;39.684;2023-07-02T14:14:01;33.29;31.45
75275;HTU21D;63871;47.216;39.684;2023-07-02T14:16:27;33.11;32.07
75275;HTU21D;63871;47.216;39.684;2023-07-02T14:18:53;33.05;32.05
75275;HTU21D;63871;47.216;39.684;2023-07-02T14:21:19;33.01;31.64
75275;HTU21D;63871;47.216;39.684;2023-07-02T14:23:45;32.86;31.73
75275;HTU21D;63871;47.216;39.684;2023-07-02T14:26:11;32.62;32.03
75275;HTU21D;63871;47.216;39.684;2023-07-02T14:28:38;32.45;32.96
75275;HTU21D;63871;47.216;39.684;2023-07-02T14:31:04;32.43;33.44
75275;HTU21D;63871;47.216;39.684;2023-07-02T14:33:32;32.32;33.85
75275;HTU21D;63871;47.216;39.684;2023-07-02T14:35:59;32.22;33.96
75275;HTU21D;63871;47.216;39.684;2023-07-02T14:38:26;32.13;33.26
75275;HTU21D;63871;47.216;39.684;2023-07-02T14:40:54;32.00;33.36
75275;HTU21D;63871;47.216;39.684;2023-07-02T14:43:21;31.94;34.04
75275;HTU21D;63871;47.216;39.684;2023-07-02T14:45:52;31.86;34.68
75275;HTU21D;63871;47.216;39.684;2023-07-02T14:48:18;31.85;34.84
75275;HTU21D;63871;47.216;39.684;2023-07-02T14:50:55;31.85;35.02
75275;HTU21D;63871;47.216;39.684;2023-07-02T14:53:22;31.75;34.85
75275;HTU21D;63871;47.216;39.684;2023-07-02T14:55:49;31.70;34.99
75275;HTU21D;63871;47.216;39.684;2023-07-02T14:58:17;31.68;35.11
75275;HTU21D;63871;47.216;39.684;2023-07-02T15:00:48;31.56;34.63
75275;HTU21D;63871;47.216;39.684;2023-07-02T15:03:14;31.40;34.67
75275;HTU21D;63871;47.216;39.684;2023-07-02T15:05:40;31.37;34.42
75275;HTU21D;63871;47.216;39.684;2023-07-02T15:08:10;31.25;34.68
75275;HTU21D;63871;47.216;39.684;2023-07-02T15:10:39;31.16;35.11
75275;HTU21D;63871;47.216;39.684;2023-07-02T15:13:08;31.13;35.28
75275;HTU21D;63871;47.216;39.684;2023-07-02T15:15:35;30.99;36.02
75275;HTU21D;63871;47.216;39.684;2023-07-02T15:18:03;30.86;36.49